createdAt,value
2022-09-27T00:01:54.016Z,1.45
2022-09-27T00:04:22.151Z,4.15
2022-09-27T00:06:56.092Z,2.30
2022-09-27T00:09:24.247Z,3.25
2022-09-27T00:11:52.311Z,1.60
2022-09-27T00:14:21.779Z,2.38
2022-09-27T00:16:50.045Z,3.35
2022-09-27T00:19:21.808Z,2.22
2022-09-27T00:21:50.477Z,2.17
2022-09-27T00:24:20.616Z,4.47
2022-09-27T00:26:49.299Z,4.53
2022-09-27T00:29:19.171Z,1.75
2022-09-27T00:31:48.885Z,2.00
2022-09-27T00:34:21.329Z,4.10
2022-09-27T00:36:49.969Z,2.45
2022-09-27T00:39:18.306Z,3.55
2022-09-27T00:41:46.704Z,2.25
2022-09-27T00:44:52.241Z,4.50
2022-09-27T00:47:29.085Z,4.22
2022-09-27T00:50:02.236Z,2.28
2022-09-27T00:52:36.542Z,2.67
2022-09-27T00:55:10.634Z,2.78
2022-09-27T00:57:39.812Z,4.00
2022-09-27T01:00:10.854Z,1.80
2022-09-27T01:02:44.105Z,2.28
2022-09-27T01:05:14.808Z,4.50
2022-09-27T01:07:43.185Z,3.08
2022-09-27T01:10:11.570Z,1.35
2022-09-27T01:12:49.471Z,3.03
2022-09-27T01:15:27.203Z,4.18
2022-09-27T01:18:09.725Z,4.03
2022-09-27T01:21:05.313Z,2.42
2022-09-27T01:24:06.564Z,2.22
2022-09-27T01:26:53.274Z,2.22
2022-09-27T01:29:31.176Z,2.33
2022-09-27T01:32:07.463Z,3.33
2022-09-27T01:34:44.799Z,3.65
2022-09-27T01:37:20.642Z,3.97
2022-09-27T01:39:54.827Z,2.67
2022-09-27T01:42:27.076Z,3.47
2022-09-27T01:45:00.857Z,5.88
2022-09-27T01:47:35.741Z,3.78
2022-09-27T01:50:07.825Z,4.20
2022-09-27T01:52:41.274Z,3.15
2022-09-27T01:55:15.465Z,2.22
2022-09-27T01:57:48.387Z,1.88
2022-09-27T02:00:16.554Z,4.57
2022-09-27T02:02:50.332Z,3.05
2022-09-27T02:05:20.982Z,3.05
2022-09-27T02:07:54.406Z,3.17
2022-09-27T02:10:25.933Z,3.60
2022-09-27T02:13:01.756Z,4.55
2022-09-27T02:15:38.007Z,2.42
2022-09-27T02:18:17.033Z,3.65
2022-09-27T02:20:50.642Z,3.65
2022-09-27T02:23:24.464Z,2.88
2022-09-27T02:25:57.414Z,2.60
2022-09-27T02:28:31.629Z,1.85
2022-09-27T02:30:59.757Z,3.25
2022-09-27T02:33:32.733Z,2.33
2022-09-27T02:36:00.764Z,2.40
2022-09-27T02:38:28.986Z,3.58
2022-09-27T02:40:57.064Z,1.98
2022-09-27T02:43:29.353Z,1.70
2022-09-27T02:46:15.550Z,3.20
2022-09-27T02:48:56.990Z,2.40
2022-09-27T02:51:42.939Z,2.75
2022-09-27T02:54:20.113Z,2.88
2022-09-27T02:57:02.460Z,3.00
2022-09-27T02:59:38.720Z,2.47
2022-09-27T03:02:13.972Z,2.67
2022-09-27T03:04:48.983Z,2.67
2022-09-27T03:07:17.873Z,6.10
2022-09-27T03:09:48.369Z,2.05
2022-09-27T03:12:20.644Z,2.08
2022-09-27T03:14:49.317Z,2.35
2022-09-27T03:17:17.665Z,3.25
2022-09-27T03:19:47.072Z,1.85
2022-09-27T03:22:15.110Z,3.80
2022-09-27T03:24:43.660Z,3.45
2022-09-27T03:27:12.828Z,3.42
2022-09-27T03:29:40.841Z,2.67
2022-09-27T03:32:08.966Z,1.98
2022-09-27T03:34:37.080Z,1.80
2022-09-27T03:37:06.403Z,2.20
2022-09-27T03:39:34.369Z,2.00
2022-09-27T03:42:02.422Z,2.13
2022-09-27T03:44:30.372Z,2.38
2022-09-27T03:46:58.739Z,3.47
2022-09-27T03:49:27.139Z,1.65
2022-09-27T03:51:55.556Z,1.63
2022-09-27T03:54:25.222Z,1.58
2022-09-27T03:56:53.438Z,2.22
2022-09-27T03:59:21.548Z,1.95
2022-09-27T04:01:49.866Z,3.65
2022-09-27T04:04:18.753Z,2.50
2022-09-27T04:06:46.683Z,1.95
2022-09-27T04:09:14.681Z,2.75
2022-09-27T04:11:44.410Z,2.65
2022-09-27T04:14:13.071Z,1.70
2022-09-27T04:16:41.493Z,2.50
2022-09-27T04:19:09.698Z,2.22
2022-09-27T04:21:37.765Z,2.65
2022-09-27T04:24:06.668Z,1.77
2022-09-27T04:26:34.648Z,1.83
2022-09-27T04:29:04.171Z,3.15
2022-09-27T04:31:32.352Z,1.23
2022-09-27T04:34:00.550Z,2.25
2022-09-27T04:36:28.105Z,0.90
2022-09-27T04:38:56.902Z,1.05
2022-09-27T04:41:25.873Z,1.20
2022-09-27T04:43:58.990Z,1.10
2022-09-27T04:46:31.828Z,1.50
2022-09-27T04:49:00.558Z,1.55
2022-09-27T04:51:29.438Z,1.67
2022-09-27T04:53:57.655Z,1.17
2022-09-27T04:56:26.160Z,1.25
2022-09-27T04:58:54.604Z,1.60
2022-09-27T05:01:22.906Z,1.75
2022-09-27T05:03:52.429Z,0.82
2022-09-27T05:06:20.849Z,3.03
2022-09-27T05:08:48.866Z,1.95
2022-09-27T05:11:16.909Z,0.80
2022-09-27T05:13:45.015Z,0.57
2022-09-27T05:16:13.032Z,0.20
2022-09-27T05:18:41.157Z,1.58
2022-09-27T05:21:10.517Z,0.65
2022-09-27T05:23:38.553Z,0.85
2022-09-27T05:26:06.989Z,0.80
2022-09-27T05:28:35.237Z,3.28
2022-09-27T05:31:03.576Z,1.23
2022-09-27T05:33:33.249Z,0.60
2022-09-27T05:36:02.206Z,1.20
2022-09-27T05:38:31.767Z,1.30
2022-09-27T05:40:59.998Z,3.65
2022-09-27T05:43:28.348Z,0.95
2022-09-27T05:45:56.650Z,1.17
2022-09-27T05:48:24.851Z,2.97
2022-09-27T05:50:52.909Z,0.57
2022-09-27T05:53:20.885Z,0.57
2022-09-27T05:55:50.496Z,1.98
2022-09-27T05:58:18.496Z,1.75
2022-09-27T06:00:46.517Z,0.68
2022-09-27T06:03:15.061Z,0.52
2022-09-27T06:05:44.476Z,1.27
2022-09-27T06:08:14.916Z,1.73
2022-09-27T06:10:43.139Z,2.92
2022-09-27T06:13:14.167Z,0.35
2022-09-27T06:15:44.031Z,1.30
2022-09-27T06:18:15.055Z,1.50
2022-09-27T06:20:44.012Z,2.40
2022-09-27T06:23:14.734Z,1.05
2022-09-27T06:25:43.515Z,2.80
2022-09-27T06:28:14.107Z,4.00
2022-09-27T06:30:44.575Z,2.05
2022-09-27T06:33:14.599Z,2.58
2022-09-27T06:35:45.262Z,2.22
2022-09-27T06:38:15.538Z,0.75
2022-09-27T06:40:45.720Z,1.55
2022-09-27T06:43:20.382Z,0.32
2022-09-27T06:45:49.070Z,3.30
2022-09-27T06:48:17.883Z,2.35
2022-09-27T06:50:47.825Z,2.38
2022-09-27T06:53:17.716Z,1.48
2022-09-27T06:55:45.814Z,1.77
2022-09-27T06:58:32.481Z,4.47
2022-09-27T07:01:00.589Z,0.70
2022-09-27T07:03:35.481Z,1.55
2022-09-27T07:06:07.538Z,1.23
2022-09-27T07:08:35.801Z,0.35
2022-09-27T07:11:06.140Z,1.00
2022-09-27T07:13:40.385Z,1.75
2022-09-27T07:16:08.614Z,1.98
2022-09-27T07:18:36.803Z,1.02
2022-09-27T07:21:04.902Z,0.60
2022-09-27T07:23:32.928Z,1.20
2022-09-27T07:26:04.640Z,1.27
2022-09-27T07:28:32.927Z,0.55
2022-09-27T07:31:03.813Z,0.68
2022-09-27T07:33:31.981Z,2.58
2022-09-27T07:36:00.034Z,0.82
2022-09-27T07:38:28.218Z,1.23
2022-09-27T07:40:56.385Z,1.05
2022-09-27T07:43:24.413Z,2.63
2022-09-27T07:45:52.456Z,1.88
2022-09-27T07:48:21.952Z,1.63
2022-09-27T07:50:49.957Z,3.63
2022-09-27T07:53:18.282Z,2.00
2022-09-27T07:55:51.124Z,0.75
2022-09-27T07:58:19.110Z,4.13
2022-09-27T08:00:47.245Z,1.45
2022-09-27T08:03:17.483Z,1.33
2022-09-27T08:05:48.267Z,0.43
2022-09-27T08:08:17.074Z,3.20
2022-09-27T08:10:47.443Z,2.85
2022-09-27T08:13:17.930Z,0.57
2022-09-27T08:15:45.993Z,0.40
2022-09-27T08:18:14.176Z,0.93
2022-09-27T08:20:42.317Z,0.63
2022-09-27T08:23:11.785Z,0.20
2022-09-27T08:25:40.276Z,0.93
2022-09-27T08:28:08.292Z,0.32
2022-09-27T08:30:38.362Z,0.73
2022-09-27T08:33:06.941Z,1.08
2022-09-27T08:35:35.073Z,0.40
2022-09-27T08:38:05.885Z,1.80
2022-09-27T08:40:47.661Z,0.93
2022-09-27T08:43:24.378Z,0.75
2022-09-27T08:46:05.233Z,1.10
2022-09-27T08:48:35.980Z,0.80
2022-09-27T08:51:06.385Z,0.90
2022-09-27T08:53:39.059Z,1.55
2022-09-27T08:58:43.584Z,0.70
2022-09-27T09:01:15.323Z,0.32
2022-09-27T09:03:48.533Z,0.65
2022-09-27T09:06:23.526Z,1.15
2022-09-27T09:09:04.736Z,1.88
2022-09-27T09:12:05.500Z,0.88
2022-09-27T09:14:47.408Z,1.45
2022-09-27T09:17:25.741Z,1.00
2022-09-27T09:20:04.733Z,1.60
2022-09-27T09:22:48.854Z,0.20
2022-09-27T09:25:29.641Z,1.08
2022-09-27T09:28:12.854Z,0.35
2022-09-27T09:30:53.134Z,1.20
2022-09-27T09:33:26.274Z,1.75
2022-09-27T09:35:59.512Z,1.20
2022-09-27T09:38:36.054Z,0.57
2022-09-27T09:41:08.777Z,0.68
2022-09-27T09:46:12.946Z,2.10
2022-09-27T09:48:46.813Z,0.52
2022-09-27T09:51:22.306Z,1.38
2022-09-27T09:53:55.938Z,0.60
2022-09-27T09:56:27.625Z,0.20
2022-09-27T09:59:02.270Z,0.40
2022-09-27T10:01:36.631Z,1.08
2022-09-27T10:04:05.623Z,2.40
2022-09-27T10:06:33.912Z,2.50
2022-09-27T10:09:02.035Z,0.30
2022-09-27T10:11:36.506Z,2.13
2022-09-27T10:14:11.951Z,2.05
2022-09-27T10:16:43.513Z,2.03
2022-09-27T10:19:13.471Z,0.50
2022-09-27T10:21:45.140Z,0.85
2022-09-27T10:24:18.019Z,0.95
2022-09-27T10:26:50.963Z,0.52
2022-09-27T10:29:25.197Z,0.98
2022-09-27T10:31:54.139Z,0.43
2022-09-27T10:34:29.759Z,0.88
2022-09-27T10:37:19.159Z,0.20
2022-09-27T10:39:48.884Z,1.08
2022-09-27T10:42:31.617Z,0.28
2022-09-27T10:45:20.959Z,1.05
2022-09-27T10:47:49.291Z,0.77
2022-09-27T10:50:46.124Z,0.60
2022-09-27T10:53:15.671Z,0.20
2022-09-27T10:55:48.005Z,1.75
2022-09-27T10:58:20.808Z,0.93
2022-09-27T11:00:58.430Z,0.63
2022-09-27T11:03:28.996Z,1.80
2022-09-27T11:05:59.253Z,1.15
2022-09-27T11:08:33.436Z,1.27
2022-09-27T11:11:07.876Z,1.20
2022-09-27T11:13:36.629Z,0.60
2022-09-27T11:16:22.471Z,0.95
2022-09-27T11:19:02.887Z,0.65
2022-09-27T11:21:42.402Z,0.60
2022-09-27T11:24:26.272Z,1.50
2022-09-27T11:27:06.717Z,1.23
2022-09-27T11:29:46.509Z,0.80
2022-09-27T11:32:27.021Z,0.43
2022-09-27T11:35:11.587Z,0.98
2022-09-27T11:37:48.678Z,0.65
2022-09-27T11:40:28.723Z,1.23
2022-09-27T11:43:17.870Z,1.20
2022-09-27T11:46:15.191Z,0.88
2022-09-27T11:49:08.411Z,1.80
2022-09-27T11:51:57.940Z,0.47
2022-09-27T11:54:40.123Z,2.22
2022-09-27T11:57:18.837Z,0.52
2022-09-27T12:00:15.527Z,4.68
2022-09-27T12:03:08.263Z,2.95
2022-09-27T12:05:58.276Z,1.48
2022-09-27T12:08:42.961Z,1.23
2022-09-27T12:11:17.457Z,4.07
2022-09-27T12:13:49.783Z,2.90
2022-09-27T12:16:20.421Z,1.08
2022-09-27T12:18:51.754Z,2.22
2022-09-27T12:21:22.761Z,1.45
2022-09-27T12:23:55.564Z,3.10
2022-09-27T12:26:28.641Z,0.50
2022-09-27T12:28:59.709Z,2.00
2022-09-27T12:31:33.544Z,2.92
2022-09-27T12:34:16.197Z,1.02
2022-09-27T12:36:54.449Z,0.80
2022-09-27T12:39:26.101Z,1.38
2022-09-27T12:42:02.101Z,3.35
2022-09-27T12:44:41.055Z,2.80
2022-09-27T12:47:15.759Z,2.70
2022-09-27T12:50:00.422Z,3.35
2022-09-27T12:52:37.454Z,0.63
2022-09-27T12:55:38.897Z,3.10
2022-09-27T12:58:42.431Z,1.92
2022-09-27T13:01:21.517Z,1.95
2022-09-27T13:04:10.292Z,1.65
2022-09-27T13:07:03.448Z,0.95
2022-09-27T13:12:21.735Z,1.50
2022-09-27T13:15:01.990Z,0.73
2022-09-27T13:17:53.337Z,2.55
2022-09-27T13:20:40.251Z,2.58
2022-09-27T13:23:50.960Z,0.77
2022-09-27T13:26:50.899Z,0.25
2022-09-27T13:29:34.314Z,0.98
2022-09-27T13:32:28.361Z,0.63
2022-09-27T13:34:57.585Z,1.45
2022-09-27T13:37:38.331Z,0.85
2022-09-27T13:40:27.420Z,1.98
2022-09-27T13:43:33.040Z,2.17
2022-09-27T13:46:07.650Z,0.52
2022-09-27T13:48:47.220Z,0.95
2022-09-27T13:51:24.365Z,0.50
2022-09-27T13:54:00.136Z,2.83
2022-09-27T13:56:51.420Z,1.58
2022-09-27T13:59:26.422Z,0.22
2022-09-27T14:02:01.407Z,1.23
2022-09-27T14:04:35.386Z,0.45
2022-09-27T14:07:05.709Z,1.15
2022-09-27T14:09:36.638Z,2.40
2022-09-27T14:12:12.188Z,0.60
2022-09-27T14:14:42.811Z,0.85
2022-09-27T14:17:12.752Z,0.20
2022-09-27T14:19:42.799Z,6.90
2022-09-27T14:22:15.658Z,1.88
2022-09-27T14:24:49.057Z,1.38
2022-09-27T14:27:20.146Z,2.83
2022-09-27T14:29:53.047Z,1.17
2022-09-27T14:32:24.809Z,1.65
2022-09-27T14:35:32.781Z,0.93
2022-09-27T14:38:15.720Z,2.03
2022-09-27T14:41:00.005Z,11.13
2022-09-27T14:43:29.173Z,2.25
2022-09-27T14:46:01.648Z,3.92
2022-09-27T14:48:33.264Z,2.33
2022-09-27T14:51:06.137Z,0.85
2022-09-27T14:53:38.015Z,1.92
2022-09-27T14:56:08.134Z,1.38
2022-09-27T14:58:47.191Z,1.23
2022-09-27T15:01:17.621Z,1.40
2022-09-27T15:03:49.700Z,1.25
2022-09-27T15:06:18.466Z,4.80
2022-09-27T15:08:50.268Z,2.30
2022-09-27T15:11:19.438Z,2.47
2022-09-27T15:13:51.266Z,2.45
2022-09-27T15:16:24.469Z,1.92
2022-09-27T15:19:03.845Z,7.55
2022-09-27T15:21:33.894Z,2.42
2022-09-27T15:24:02.986Z,11.48
2022-09-27T15:26:38.749Z,6.18
2022-09-27T15:29:07.755Z,4.65
2022-09-27T15:31:37.492Z,2.97
2022-09-27T15:34:07.250Z,1.83
2022-09-27T15:36:56.615Z,1.55
2022-09-27T15:39:29.744Z,4.78
2022-09-27T15:42:09.064Z,3.10
2022-09-27T15:44:48.525Z,1.38
2022-09-27T15:47:43.376Z,2.53
2022-09-27T15:50:38.917Z,3.00
2022-09-27T15:53:07.408Z,1.83
2022-09-27T15:55:40.302Z,3.30
2022-09-27T15:58:14.737Z,3.65
2022-09-27T16:00:52.623Z,3.35
2022-09-27T16:03:20.562Z,1.55
2022-09-27T16:05:50.087Z,1.75
2022-09-27T16:08:18.321Z,72.18
2022-09-27T16:10:49.604Z,97.88
2022-09-27T16:13:17.601Z,67.05
2022-09-27T16:15:46.602Z,36.65
2022-09-27T16:18:14.882Z,4.63
2022-09-27T16:20:43.130Z,3.53
2022-09-27T16:23:12.467Z,6.32
2022-09-27T16:25:40.417Z,4.82
2022-09-27T16:28:09.751Z,4.28
2022-09-27T16:30:37.666Z,3.63
2022-09-27T16:33:05.686Z,4.80
2022-09-27T16:35:33.687Z,4.57
2022-09-27T16:38:01.743Z,2.13
2022-09-27T16:40:32.098Z,2.90
2022-09-27T16:43:00.108Z,2.30
2022-09-27T16:45:34.129Z,1.35
2022-09-27T16:48:02.661Z,1.38
2022-09-27T16:50:48.034Z,2.30
2022-09-27T16:53:16.008Z,3.92
2022-09-27T16:55:45.424Z,2.88
2022-09-27T16:58:13.610Z,0.90
2022-09-27T17:00:42.079Z,1.75
2022-09-27T17:03:10.195Z,2.65
2022-09-27T17:05:38.184Z,6.03
2022-09-27T17:08:06.232Z,2.83
2022-09-27T17:10:35.816Z,1.13
2022-09-27T17:13:05.265Z,2.60
2022-09-27T17:15:33.166Z,0.60
2022-09-27T17:18:01.119Z,1.98
2022-09-27T17:20:29.084Z,0.20
2022-09-27T17:22:57.380Z,1.17
2022-09-27T17:25:25.292Z,1.98
2022-09-27T17:27:53.285Z,1.48
2022-09-27T17:30:22.822Z,0.95
2022-09-27T17:32:50.978Z,0.90
2022-09-27T17:35:19.477Z,2.08
2022-09-27T17:37:47.389Z,3.83
2022-09-27T17:40:16.277Z,1.25
2022-09-27T17:42:44.729Z,0.73
2022-09-27T17:45:12.761Z,1.25
2022-09-27T17:47:59.596Z,1.70
2022-09-27T17:50:28.681Z,0.22
2022-09-27T17:52:58.435Z,0.80
2022-09-27T17:55:27.015Z,1.67
2022-09-27T17:57:55.032Z,1.45
2022-09-27T18:00:23.063Z,0.65
2022-09-27T18:02:52.850Z,0.65
2022-09-27T18:05:21.741Z,1.20
2022-09-27T18:07:49.869Z,0.82
2022-09-27T18:10:18.663Z,0.73
2022-09-27T18:12:46.700Z,1.23
2022-09-27T18:15:19.972Z,1.08
2022-09-27T18:17:57.872Z,0.63
2022-09-27T18:20:26.194Z,1.10
2022-09-27T18:22:54.537Z,1.30
2022-09-27T18:25:24.990Z,1.15
2022-09-27T18:27:55.596Z,1.45
2022-09-27T18:30:23.580Z,7.53
2022-09-27T18:32:53.973Z,1.63
2022-09-27T18:35:23.789Z,0.60
2022-09-27T18:37:51.766Z,13.43
2022-09-27T18:40:32.645Z,66.55
2022-09-27T18:43:11.199Z,14.52
2022-09-27T18:45:39.621Z,17.17
2022-09-27T18:48:10.085Z,6.85
2022-09-27T18:50:38.630Z,5.15
2022-09-27T18:53:08.314Z,18.90
2022-09-27T18:55:38.329Z,0.43
2022-09-27T18:58:06.564Z,1.15
2022-09-27T19:00:34.816Z,4.50
2022-09-27T19:03:02.850Z,0.93
2022-09-27T19:05:32.319Z,2.80
2022-09-27T19:08:00.292Z,2.42
2022-09-27T19:10:28.308Z,2.00
2022-09-27T19:12:57.210Z,2.58
2022-09-27T19:15:25.600Z,2.00
2022-09-27T19:17:53.945Z,3.47
2022-09-27T19:20:22.027Z,4.68
2022-09-27T19:22:51.380Z,2.20
2022-09-27T19:25:19.427Z,2.35
2022-09-27T19:27:47.472Z,12.60
2022-09-27T19:30:15.585Z,5.22
2022-09-27T19:32:43.554Z,1.90
2022-09-27T19:35:12.344Z,2.83
2022-09-27T19:37:40.233Z,1.73
2022-09-27T19:40:10.190Z,2.05
2022-09-27T19:42:38.140Z,1.88
2022-09-27T19:45:11.454Z,2.88
2022-09-27T19:47:39.641Z,2.20
2022-09-27T19:50:08.769Z,0.43
2022-09-27T19:52:36.746Z,1.90
2022-09-27T19:55:05.714Z,2.15
2022-09-27T19:57:34.991Z,0.80
2022-09-27T20:00:03.122Z,0.80
2022-09-27T20:02:31.449Z,1.20
2022-09-27T20:04:59.512Z,0.70
2022-09-27T20:07:27.544Z,2.55
2022-09-27T20:09:55.529Z,0.60
2022-09-27T20:12:24.585Z,0.80
2022-09-27T20:14:54.034Z,0.50
2022-09-27T20:17:21.981Z,1.73
2022-09-27T20:19:50.036Z,2.03
2022-09-27T20:22:17.960Z,2.33
2022-09-27T20:24:45.827Z,1.08
2022-09-27T20:27:13.839Z,0.47
2022-09-27T20:29:41.736Z,0.85
2022-09-27T20:32:26.773Z,0.90
2022-09-27T20:34:55.456Z,1.13
2022-09-27T20:37:23.867Z,0.63
2022-09-27T20:39:53.495Z,0.50
2022-09-27T20:42:21.641Z,0.90
2022-09-27T20:44:53.987Z,0.85
2022-09-27T20:47:23.891Z,2.30
2022-09-27T20:49:51.838Z,1.80
2022-09-27T20:52:19.808Z,1.50
2022-09-27T20:54:47.826Z,1.52
2022-09-27T20:57:15.899Z,0.60
2022-09-27T20:59:43.915Z,1.65
2022-09-27T21:02:11.855Z,0.65
2022-09-27T21:04:41.195Z,0.63
2022-09-27T21:07:09.157Z,0.60
2022-09-27T21:09:38.585Z,1.00
2022-09-27T21:12:06.599Z,2.25
2022-09-27T21:14:34.488Z,0.88
2022-09-27T21:17:02.610Z,0.70
2022-09-27T21:19:30.689Z,0.80
2022-09-27T21:22:00.092Z,0.75
2022-09-27T21:24:28.035Z,0.90
2022-09-27T21:26:55.987Z,0.47
2022-09-27T21:29:23.988Z,0.85
2022-09-27T21:31:51.939Z,1.65
2022-09-27T21:34:19.905Z,0.70
2022-09-27T21:36:47.894Z,1.20
2022-09-27T21:39:17.360Z,0.95
2022-09-27T21:41:45.416Z,0.65
2022-09-27T21:44:13.485Z,0.30
2022-09-27T21:46:43.426Z,1.38
2022-09-27T21:49:11.863Z,0.47
2022-09-27T21:51:41.513Z,1.55
2022-09-27T21:54:11.861Z,1.10
2022-09-27T21:56:42.190Z,2.22
2022-09-27T21:59:12.968Z,0.88
2022-09-27T22:01:43.278Z,2.90
2022-09-27T22:04:11.342Z,1.70
2022-09-27T22:06:40.278Z,0.70
2022-09-27T22:09:10.074Z,1.27
2022-09-27T22:11:42.818Z,1.70
2022-09-27T22:16:39.155Z,1.15
2022-09-27T22:19:07.361Z,0.90
2022-09-27T22:21:37.641Z,0.35
2022-09-27T22:24:08.176Z,0.20
2022-09-27T22:26:38.862Z,1.10
2022-09-27T22:29:09.505Z,0.55
2022-09-27T22:31:38.153Z,0.20
2022-09-27T22:34:07.839Z,1.00
2022-09-27T22:36:36.538Z,1.13
2022-09-27T22:39:04.701Z,0.90
2022-09-27T22:41:32.676Z,0.90
2022-09-27T22:44:01.174Z,0.30
2022-09-27T22:46:30.620Z,0.50
2022-09-27T22:48:58.919Z,0.70
2022-09-27T22:51:27.081Z,2.50
2022-09-27T22:53:55.130Z,1.20
2022-09-27T22:56:23.136Z,3.20
2022-09-27T22:58:51.180Z,3.28
2022-09-27T23:01:21.215Z,1.20
2022-09-27T23:03:52.346Z,0.40
2022-09-27T23:06:21.682Z,1.88
2022-09-27T23:08:51.253Z,2.35
2022-09-27T23:11:21.384Z,3.22
2022-09-27T23:13:50.861Z,0.73
2022-09-27T23:16:20.964Z,1.85
2022-09-27T23:18:53.833Z,1.80
2022-09-27T23:21:22.817Z,1.00
2022-09-27T23:23:52.778Z,1.60
2022-09-27T23:26:24.100Z,1.13
2022-09-27T23:28:54.358Z,0.43
2022-09-27T23:31:23.953Z,0.50
2022-09-27T23:33:54.552Z,1.02
2022-09-27T23:36:26.789Z,1.08
2022-09-27T23:38:56.442Z,0.30
2022-09-27T23:41:24.385Z,1.02
2022-09-27T23:43:53.439Z,0.28
2022-09-27T23:46:22.218Z,2.03
2022-09-27T23:48:50.204Z,0.98
2022-09-27T23:51:19.656Z,1.00
2022-09-27T23:53:47.629Z,7.68
2022-09-27T23:56:17.622Z,1.08
2022-09-27T23:58:46.988Z,0.82
